sensor_id;sensor_type;location;lat;lon;timestamp;pressure;altitude;pressure_sealevel;temperature;humidity
41632;BME280;37452;51.938;4.624;2023-05-10T00:01:09;76145.13;;;-142.75;100.00
41632;BME280;37452;51.938;4.624;2023-05-10T00:03:35;76149.06;;;-142.75;100.00
41632;BME280;37452;51.938;4.624;2023-05-10T00:06:00;76139.22;;;-142.75;100.00
41632;BME280;37452;51.938;4.624;2023-05-10T00:08:25;76135.28;;;-142.75;100.00
41632;BME280;37452;51.938;4.624;2023-05-10T00:10:51;76143.16;;;-142.75;100.00
41632;BME280;37452;51.938;4.624;2023-05-10T00:13:17;76145.13;;;-142.75;100.00
41632;BME280;37452;51.938;4.624;2023-05-10T00:15:42;76147.09;;;-142.75;100.00
41632;BME280;37452;51.938;4.624;2023-05-10T00:18:07;76160.88;;;-142.75;100.00
41632;BME280;37452;51.938;4.624;2023-05-10T00:20:32;76156.94;;;-142.75;100.00
41632;BME280;37452;51.938;4.624;2023-05-10T00:22:58;76168.75;;;-142.75;100.00
41632;BME280;37452;51.938;4.624;2023-05-10T00:25:23;76156.94;;;-142.75;100.00
41632;BME280;37452;51.938;4.624;2023-05-10T00:27:48;76143.16;;;-142.75;100.00
41632;BME280;37452;51.938;4.624;2023-05-10T00:30:14;76127.41;;;-142.75;100.00
41632;BME280;37452;51.938;4.624;2023-05-10T00:32:39;76123.47;;;-142.75;100.00
41632;BME280;37452;51.938;4.624;2023-05-10T00:35:05;76113.63;;;-142.75;100.00
41632;BME280;37452;51.938;4.624;2023-05-10T00:37:30;76121.50;;;-142.75;100.00
41632;BME280;37452;51.938;4.624;2023-05-10T00:39:55;76117.56;;;-142.75;100.00
41632;BME280;37452;51.938;4.624;2023-05-10T00:42:20;76117.56;;;-142.75;100.00
41632;BME280;37452;51.938;4.624;2023-05-10T00:44:46;76123.47;;;-142.75;100.00
41632;BME280;37452;51.938;4.624;2023-05-10T00:47:11;76109.69;;;-142.75;100.00
41632;BME280;37452;51.938;4.624;2023-05-10T00:49:37;76109.69;;;-142.75;100.00
41632;BME280;37452;51.938;4.624;2023-05-10T00:52:02;76111.66;;;-142.75;100.00
41632;BME280;37452;51.938;4.624;2023-05-10T00:54:28;76123.47;;;-142.75;100.00
41632;BME280;37452;51.938;4.624;2023-05-10T00:56:53;76133.31;;;-142.75;100.00
41632;BME280;37452;51.938;4.624;2023-05-10T00:59:18;76139.22;;;-142.75;100.00
41632;BME280;37452;51.938;4.624;2023-05-10T01:01:47;76160.88;;;-142.75;100.00
41632;BME280;37452;51.938;4.624;2023-05-10T01:04:13;76151.03;;;-142.75;100.00
41632;BME280;37452;51.938;4.624;2023-05-10T01:06:39;76141.19;;;-142.75;100.00
41632;BME280;37452;51.938;4.624;2023-05-10T01:09:04;76145.13;;;-142.75;100.00
41632;BME280;37452;51.938;4.624;2023-05-10T01:11:31;76141.19;;;-142.75;100.00
41632;BME280;37452;51.938;4.624;2023-05-10T01:13:56;76153.00;;;-142.75;100.00
41632;BME280;37452;51.938;4.624;2023-05-10T01:16:22;76151.03;;;-142.75;100.00
41632;BME280;37452;51.938;4.624;2023-05-10T01:18:48;76149.06;;;-142.75;100.00
41632;BME280;37452;51.938;4.624;2023-05-10T01:23:55;76145.13;;;-142.75;100.00
41632;BME280;37452;51.938;4.624;2023-05-10T01:29:13;76141.19;;;-142.75;100.00
41632;BME280;37452;51.938;4.624;2023-05-10T01:34:29;76149.06;;;-142.75;100.00
41632;BME280;37452;51.938;4.624;2023-05-10T01:36:58;76164.81;;;-142.75;100.00
41632;BME280;37452;51.938;4.624;2023-05-10T01:44:40;76160.88;;;-142.75;100.00
41632;BME280;37452;51.938;4.624;2023-05-10T01:47:13;76160.88;;;-142.75;100.00
41632;BME280;37452;51.938;4.624;2023-05-10T01:49:50;76158.91;;;-142.75;100.00
41632;BME280;37452;51.938;4.624;2023-05-10T01:52:17;76143.16;;;-142.75;100.00
41632;BME280;37452;51.938;4.624;2023-05-10T01:54:50;76137.25;;;-142.75;100.00
41632;BME280;37452;51.938;4.624;2023-05-10T01:57:18;76133.31;;;-142.75;100.00
41632;BME280;37452;51.938;4.624;2023-05-10T01:59:45;76141.19;;;-142.75;100.00
41632;BME280;37452;51.938;4.624;2023-05-10T02:02:14;76145.13;;;-142.75;100.00
41632;BME280;37452;51.938;4.624;2023-05-10T02:04:41;76151.03;;;-142.75;100.00
41632;BME280;37452;51.938;4.624;2023-05-10T02:07:07;76135.28;;;-142.75;100.00
41632;BME280;37452;51.938;4.624;2023-05-10T02:09:33;76137.25;;;-142.75;100.00
41632;BME280;37452;51.938;4.624;2023-05-10T02:11:59;76137.25;;;-142.75;100.00
41632;BME280;37452;51.938;4.624;2023-05-10T02:14:27;76127.41;;;-142.75;100.00
41632;BME280;37452;51.938;4.624;2023-05-10T02:16:53;76131.34;;;-142.75;100.00
41632;BME280;37452;51.938;4.624;2023-05-10T02:19:20;76131.34;;;-142.75;100.00
41632;BME280;37452;51.938;4.624;2023-05-10T02:21:46;76119.53;;;-142.75;100.00
41632;BME280;37452;51.938;4.624;2023-05-10T02:24:12;76143.16;;;-142.75;100.00
41632;BME280;37452;51.938;4.624;2023-05-10T02:26:39;76129.38;;;-142.75;100.00
41632;BME280;37452;51.938;4.624;2023-05-10T02:29:05;76125.44;;;-142.75;100.00
41632;BME280;37452;51.938;4.624;2023-05-10T02:31:32;76129.38;;;-142.75;100.00
41632;BME280;37452;51.938;4.624;2023-05-10T02:33:58;76133.31;;;-142.75;100.00
41632;BME280;37452;51.938;4.624;2023-05-10T02:36:24;76125.44;;;-142.75;100.00
41632;BME280;37452;51.938;4.624;2023-05-10T02:38:52;76129.38;;;-142.75;100.00
41632;BME280;37452;51.938;4.624;2023-05-10T02:41:18;76121.50;;;-142.75;100.00
41632;BME280;37452;51.938;4.624;2023-05-10T02:43:44;76115.59;;;-142.75;100.00
41632;BME280;37452;51.938;4.624;2023-05-10T02:46:10;76117.56;;;-142.75;100.00
41632;BME280;37452;51.938;4.624;2023-05-10T02:48:35;76125.44;;;-142.75;100.00
41632;BME280;37452;51.938;4.624;2023-05-10T02:51:03;76117.56;;;-142.75;100.00
41632;BME280;37452;51.938;4.624;2023-05-10T02:53:32;76123.47;;;-142.75;100.00
41632;BME280;37452;51.938;4.624;2023-05-10T02:56:03;76129.38;;;-142.75;100.00
41632;BME280;37452;51.938;4.624;2023-05-10T02:58:29;76121.50;;;-142.75;100.00
41632;BME280;37452;51.938;4.624;2023-05-10T03:00:54;76125.44;;;-142.75;100.00
41632;BME280;37452;51.938;4.624;2023-05-10T03:03:20;76129.38;;;-142.75;100.00
41632;BME280;37452;51.938;4.624;2023-05-10T03:05:46;76119.53;;;-142.75;100.00
41632;BME280;37452;51.938;4.624;2023-05-10T03:08:11;76139.22;;;-142.75;100.00
41632;BME280;37452;51.938;4.624;2023-05-10T03:10:38;76125.44;;;-142.75;100.00
41632;BME280;37452;51.938;4.624;2023-05-10T03:15:41;76129.38;;;-142.75;100.00
41632;BME280;37452;51.938;4.624;2023-05-10T03:18:09;76135.28;;;-142.75;100.00
41632;BME280;37452;51.938;4.624;2023-05-10T03:20:36;76147.09;;;-142.75;100.00
41632;BME280;37452;51.938;4.624;2023-05-10T03:25:40;76135.28;;;-142.75;100.00
41632;BME280;37452;51.938;4.624;2023-05-10T03:28:06;76145.13;;;-142.75;100.00
41632;BME280;37452;51.938;4.624;2023-05-10T03:30:31;76158.91;;;-142.75;100.00
41632;BME280;37452;51.938;4.624;2023-05-10T03:32:58;76149.06;;;-142.75;100.00
41632;BME280;37452;51.938;4.624;2023-05-10T03:35:28;76147.09;;;-142.75;100.00
41632;BME280;37452;51.938;4.624;2023-05-10T03:37:54;76156.94;;;-142.75;100.00
41632;BME280;37452;51.938;4.624;2023-05-10T03:40:19;76143.16;;;-142.75;100.00
41632;BME280;37452;51.938;4.624;2023-05-10T03:42:44;76143.16;;;-142.75;100.00
41632;BME280;37452;51.938;4.624;2023-05-10T03:45:09;76156.94;;;-142.75;100.00
41632;BME280;37452;51.938;4.624;2023-05-10T03:47:35;76166.78;;;-142.75;100.00
41632;BME280;37452;51.938;4.624;2023-05-10T03:50:00;76151.03;;;-142.75;100.00
41632;BME280;37452;51.938;4.624;2023-05-10T03:52:25;76154.97;;;-142.75;100.00
41632;BME280;37452;51.938;4.624;2023-05-10T03:54:50;76154.97;;;-142.75;100.00
41632;BME280;37452;51.938;4.624;2023-05-10T03:57:15;76160.88;;;-142.75;100.00
41632;BME280;37452;51.938;4.624;2023-05-10T03:59:41;76168.75;;;-142.75;100.00
41632;BME280;37452;51.938;4.624;2023-05-10T04:02:06;76176.63;;;-142.75;100.00
41632;BME280;37452;51.938;4.624;2023-05-10T04:04:31;76160.88;;;-142.75;100.00
41632;BME280;37452;51.938;4.624;2023-05-10T04:06:56;76162.84;;;-142.75;100.00
41632;BME280;37452;51.938;4.624;2023-05-10T04:09:21;76168.75;;;-142.75;100.00
41632;BME280;37452;51.938;4.624;2023-05-10T04:11:47;76188.44;;;-142.75;100.00
41632;BME280;37452;51.938;4.624;2023-05-10T04:14:12;76164.81;;;-142.75;100.00
41632;BME280;37452;51.938;4.624;2023-05-10T04:16:37;76160.88;;;-142.75;100.00
41632;BME280;37452;51.938;4.624;2023-05-10T04:19:02;76162.84;;;-142.75;100.00
41632;BME280;37452;51.938;4.624;2023-05-10T04:21:28;76168.75;;;-142.75;100.00
41632;BME280;37452;51.938;4.624;2023-05-10T04:23:53;76172.69;;;-142.75;100.00
41632;BME280;37452;51.938;4.624;2023-05-10T04:26:19;76176.63;;;-142.75;100.00
41632;BME280;37452;51.938;4.624;2023-05-10T04:28:45;76172.69;;;-142.75;100.00
41632;BME280;37452;51.938;4.624;2023-05-10T04:31:10;76192.38;;;-142.75;100.00
41632;BME280;37452;51.938;4.624;2023-05-10T04:33:35;76196.31;;;-142.75;100.00
41632;BME280;37452;51.938;4.624;2023-05-10T04:36:01;76188.44;;;-142.75;100.00
41632;BME280;37452;51.938;4.624;2023-05-10T04:38:26;76194.34;;;-142.75;100.00
41632;BME280;37452;51.938;4.624;2023-05-10T04:40:52;76208.09;;;-142.75;100.00
41632;BME280;37452;51.938;4.624;2023-05-10T04:43:17;76198.28;;;-142.75;100.00
41632;BME280;37452;51.938;4.624;2023-05-10T04:45:42;76202.19;;;-142.75;100.00
41632;BME280;37452;51.938;4.624;2023-05-10T04:48:07;76215.97;;;-142.75;100.00
41632;BME280;37452;51.938;4.624;2023-05-10T04:50:32;76214.00;;;-142.75;100.00
41632;BME280;37452;51.938;4.624;2023-05-10T04:52:58;76231.72;;;-142.75;100.00
41632;BME280;37452;51.938;4.624;2023-05-10T04:55:23;76217.94;;;-142.75;100.00
41632;BME280;37452;51.938;4.624;2023-05-10T04:57:48;76208.09;;;-142.75;100.00
41632;BME280;37452;51.938;4.624;2023-05-10T05:00:14;76214.00;;;-142.75;100.00
41632;BME280;37452;51.938;4.624;2023-05-10T05:02:42;76227.78;;;-142.75;100.00
41632;BME280;37452;51.938;4.624;2023-05-10T05:05:07;76243.53;;;-142.75;100.00
41632;BME280;37452;51.938;4.624;2023-05-10T05:07:32;76239.59;;;-142.75;100.00
41632;BME280;37452;51.938;4.624;2023-05-10T05:09:57;76229.75;;;-142.75;100.00
41632;BME280;37452;51.938;4.624;2023-05-10T05:12:23;76233.69;;;-142.75;100.00
41632;BME280;37452;51.938;4.624;2023-05-10T05:14:50;76235.66;;;-142.75;100.00
41632;BME280;37452;51.938;4.624;2023-05-10T05:17:16;76227.78;;;-142.75;100.00
41632;BME280;37452;51.938;4.624;2023-05-10T05:19:41;76235.66;;;-142.75;100.00
41632;BME280;37452;51.938;4.624;2023-05-10T05:22:06;76261.25;;;-142.75;100.00
41632;BME280;37452;51.938;4.624;2023-05-10T05:24:35;76259.28;;;-142.75;100.00
41632;BME280;37452;51.938;4.624;2023-05-10T05:27:01;76275.03;;;-142.75;100.00
41632;BME280;37452;51.938;4.624;2023-05-10T05:29:26;76300.63;;;-142.75;100.00
41632;BME280;37452;51.938;4.624;2023-05-10T05:31:51;76286.84;;;-142.75;100.00
41632;BME280;37452;51.938;4.624;2023-05-10T05:34:17;76292.75;;;-142.75;100.00
41632;BME280;37452;51.938;4.624;2023-05-10T05:36:42;76290.78;;;-142.75;100.00
41632;BME280;37452;51.938;4.624;2023-05-10T05:39:07;76286.84;;;-142.75;100.00
41632;BME280;37452;51.938;4.624;2023-05-10T05:41:32;76277.00;;;-142.75;100.00
41632;BME280;37452;51.938;4.624;2023-05-10T05:43:58;76275.03;;;-142.75;100.00
41632;BME280;37452;51.938;4.624;2023-05-10T05:46:23;76284.88;;;-142.75;100.00
41632;BME280;37452;51.938;4.624;2023-05-10T05:48:48;76278.97;;;-142.75;100.00
41632;BME280;37452;51.938;4.624;2023-05-10T05:51:13;76275.03;;;-142.75;100.00
41632;BME280;37452;51.938;4.624;2023-05-10T05:53:39;76267.16;;;-142.75;100.00
41632;BME280;37452;51.938;4.624;2023-05-10T05:56:04;76278.97;;;-142.75;100.00
41632;BME280;37452;51.938;4.624;2023-05-10T05:58:29;76282.91;;;-142.75;100.00
41632;BME280;37452;51.938;4.624;2023-05-10T06:00:54;76286.84;;;-142.75;100.00
41632;BME280;37452;51.938;4.624;2023-05-10T06:03:20;76277.00;;;-142.75;100.00
41632;BME280;37452;51.938;4.624;2023-05-10T06:05:45;76278.97;;;-142.75;100.00
41632;BME280;37452;51.938;4.624;2023-05-10T06:08:10;76275.03;;;-142.75;100.00
41632;BME280;37452;51.938;4.624;2023-05-10T06:10:36;76286.84;;;-142.75;100.00
41632;BME280;37452;51.938;4.624;2023-05-10T06:13:01;76277.00;;;-142.75;100.00
41632;BME280;37452;51.938;4.624;2023-05-10T06:15:26;76267.16;;;-142.75;100.00
41632;BME280;37452;51.938;4.624;2023-05-10T06:17:52;76255.34;;;-142.75;100.00
41632;BME280;37452;51.938;4.624;2023-05-10T06:20:17;76267.16;;;-142.75;100.00
41632;BME280;37452;51.938;4.624;2023-05-10T06:22:42;76277.00;;;-142.75;100.00
41632;BME280;37452;51.938;4.624;2023-05-10T06:25:08;76263.22;;;-142.75;100.00
41632;BME280;37452;51.938;4.624;2023-05-10T06:27:33;76275.03;;;-142.75;100.00
41632;BME280;37452;51.938;4.624;2023-05-10T06:29:58;76273.06;;;-142.75;100.00
41632;BME280;37452;51.938;4.624;2023-05-10T06:32:23;76263.22;;;-142.75;100.00
41632;BME280;37452;51.938;4.624;2023-05-10T06:34:49;76255.34;;;-142.75;100.00
41632;BME280;37452;51.938;4.624;2023-05-10T06:37:14;76255.34;;;-142.75;100.00
41632;BME280;37452;51.938;4.624;2023-05-10T06:39:39;76251.41;;;-142.75;100.00
41632;BME280;37452;51.938;4.624;2023-05-10T06:42:04;76235.66;;;-142.75;100.00
41632;BME280;37452;51.938;4.624;2023-05-10T06:44:30;76219.91;;;-142.75;100.00
41632;BME280;37452;51.938;4.624;2023-05-10T06:46:55;76210.06;;;-142.75;100.00
41632;BME280;37452;51.938;4.624;2023-05-10T06:49:20;76206.13;;;-142.75;100.00
41632;BME280;37452;51.938;4.624;2023-05-10T06:51:46;76194.34;;;-142.75;100.00
41632;BME280;37452;51.938;4.624;2023-05-10T06:54:11;76204.16;;;-142.75;100.00
41632;BME280;37452;51.938;4.624;2023-05-10T06:56:36;76208.09;;;-142.75;100.00
41632;BME280;37452;51.938;4.624;2023-05-10T06:59:01;76188.44;;;-142.75;100.00
41632;BME280;37452;51.938;4.624;2023-05-10T07:01:27;76196.31;;;-142.75;100.00
41632;BME280;37452;51.938;4.624;2023-05-10T07:03:56;76212.03;;;-142.75;100.00
41632;BME280;37452;51.938;4.624;2023-05-10T07:06:21;76217.94;;;-142.75;100.00
41632;BME280;37452;51.938;4.624;2023-05-10T07:08:47;76212.03;;;-142.75;100.00
41632;BME280;37452;51.938;4.624;2023-05-10T07:11:12;76208.09;;;-142.75;100.00
41632;BME280;37452;51.938;4.624;2023-05-10T07:13:37;76210.06;;;-142.75;100.00
41632;BME280;37452;51.938;4.624;2023-05-10T07:16:04;76219.91;;;-142.75;100.00
41632;BME280;37452;51.938;4.624;2023-05-10T07:18:31;76217.94;;;-142.75;100.00
41632;BME280;37452;51.938;4.624;2023-05-10T07:20:56;76219.91;;;-142.75;100.00
41632;BME280;37452;51.938;4.624;2023-05-10T07:23:21;76227.78;;;-142.75;100.00
41632;BME280;37452;51.938;4.624;2023-05-10T07:25:47;76223.84;;;-142.75;100.00
41632;BME280;37452;51.938;4.624;2023-05-10T07:28:13;76217.94;;;-142.75;100.00
41632;BME280;37452;51.938;4.624;2023-05-10T07:30:38;76223.84;;;-142.75;100.00
41632;BME280;37452;51.938;4.624;2023-05-10T07:33:03;76208.09;;;-142.75;100.00
41632;BME280;37452;51.938;4.624;2023-05-10T07:35:29;76231.72;;;-142.75;100.00
41632;BME280;37452;51.938;4.624;2023-05-10T07:37:54;76231.72;;;-142.75;100.00
41632;BME280;37452;51.938;4.624;2023-05-10T07:40:19;76231.72;;;-142.75;100.00
41632;BME280;37452;51.938;4.624;2023-05-10T07:42:44;76235.66;;;-142.75;100.00
41632;BME280;37452;51.938;4.624;2023-05-10T07:45:10;76229.75;;;-142.75;100.00
41632;BME280;37452;51.938;4.624;2023-05-10T07:47:35;76233.69;;;-142.75;100.00
41632;BME280;37452;51.938;4.624;2023-05-10T07:50:01;76223.84;;;-142.75;100.00
41632;BME280;37452;51.938;4.624;2023-05-10T07:52:26;76221.88;;;-142.75;100.00
41632;BME280;37452;51.938;4.624;2023-05-10T07:54:51;76231.72;;;-142.75;100.00
41632;BME280;37452;51.938;4.624;2023-05-10T07:57:17;76239.59;;;-142.75;100.00
41632;BME280;37452;51.938;4.624;2023-05-10T07:59:43;76237.63;;;-142.75;100.00
41632;BME280;37452;51.938;4.624;2023-05-10T08:02:08;76235.66;;;-142.75;100.00
41632;BME280;37452;51.938;4.624;2023-05-10T08:04:33;76243.53;;;-142.75;100.00
41632;BME280;37452;51.938;4.624;2023-05-10T08:06:59;76241.56;;;-142.75;100.00
41632;BME280;37452;51.938;4.624;2023-05-10T08:09:24;76239.59;;;-142.75;100.00
41632;BME280;37452;51.938;4.624;2023-05-10T08:11:49;76247.47;;;-142.75;100.00
41632;BME280;37452;51.938;4.624;2023-05-10T08:14:15;76243.53;;;-142.75;100.00
41632;BME280;37452;51.938;4.624;2023-05-10T08:16:40;76241.56;;;-142.75;100.00
41632;BME280;37452;51.938;4.624;2023-05-10T08:19:06;76239.59;;;-142.75;100.00
41632;BME280;37452;51.938;4.624;2023-05-10T08:21:31;76229.75;;;-142.75;100.00
41632;BME280;37452;51.938;4.624;2023-05-10T08:23:56;76219.91;;;-142.75;100.00
41632;BME280;37452;51.938;4.624;2023-05-10T08:26:22;76204.16;;;-142.75;100.00
41632;BME280;37452;51.938;4.624;2023-05-10T08:28:47;76214.00;;;-142.75;100.00
41632;BME280;37452;51.938;4.624;2023-05-10T08:31:13;76225.81;;;-142.75;100.00
41632;BME280;37452;51.938;4.624;2023-05-10T08:33:38;76225.81;;;-142.75;100.00
41632;BME280;37452;51.938;4.624;2023-05-10T08:36:03;76229.75;;;-142.75;100.00
41632;BME280;37452;51.938;4.624;2023-05-10T08:38:29;76223.84;;;-142.75;100.00
41632;BME280;37452;51.938;4.624;2023-05-10T08:40:54;76225.81;;;-142.75;100.00
41632;BME280;37452;51.938;4.624;2023-05-10T08:43:24;76231.72;;;-142.75;100.00
41632;BME280;37452;51.938;4.624;2023-05-10T08:45:51;76219.91;;;-142.75;100.00
41632;BME280;37452;51.938;4.624;2023-05-10T08:48:18;76231.72;;;-142.75;100.00
41632;BME280;37452;51.938;4.624;2023-05-10T08:50:44;76229.75;;;-142.75;100.00
41632;BME280;37452;51.938;4.624;2023-05-10T08:53:10;76235.66;;;-142.75;100.00
41632;BME280;37452;51.938;4.624;2023-05-10T08:55:36;76251.41;;;-142.75;100.00
41632;BME280;37452;51.938;4.624;2023-05-10T08:58:03;76251.41;;;-142.75;100.00
41632;BME280;37452;51.938;4.624;2023-05-10T09:00:29;76271.09;;;-142.75;100.00
41632;BME280;37452;51.938;4.624;2023-05-10T09:02:54;76263.22;;;-142.75;100.00
41632;BME280;37452;51.938;4.624;2023-05-10T09:05:20;76261.25;;;-142.75;100.00
41632;BME280;37452;51.938;4.624;2023-05-10T09:07:45;76263.22;;;-142.75;100.00
41632;BME280;37452;51.938;4.624;2023-05-10T09:10:10;76263.22;;;-142.75;100.00
41632;BME280;37452;51.938;4.624;2023-05-10T09:12:36;76282.91;;;-142.75;100.00
41632;BME280;37452;51.938;4.624;2023-05-10T09:15:01;76306.53;;;-142.75;100.00
41632;BME280;37452;51.938;4.624;2023-05-10T09:17:27;76298.66;;;-142.75;100.00
41632;BME280;37452;51.938;4.624;2023-05-10T09:19:59;76284.88;;;-142.75;100.00
41632;BME280;37452;51.938;4.624;2023-05-10T09:22:24;76267.16;;;-142.75;100.00
41632;BME280;37452;51.938;4.624;2023-05-10T09:25:03;76263.22;;;-142.75;100.00
41632;BME280;37452;51.938;4.624;2023-05-10T09:27:28;76261.25;;;-142.75;100.00
41632;BME280;37452;51.938;4.624;2023-05-10T09:29:53;76265.19;;;-142.75;100.00
41632;BME280;37452;51.938;4.624;2023-05-10T09:32:20;76277.00;;;-142.75;100.00
41632;BME280;37452;51.938;4.624;2023-05-10T09:34:45;76273.06;;;-142.75;100.00
41632;BME280;37452;51.938;4.624;2023-05-10T09:37:10;76277.00;;;-142.75;100.00
41632;BME280;37452;51.938;4.624;2023-05-10T09:39:36;76271.09;;;-142.75;100.00
41632;BME280;37452;51.938;4.624;2023-05-10T09:42:06;76286.84;;;-142.75;100.00
41632;BME280;37452;51.938;4.624;2023-05-10T09:44:34;76292.75;;;-142.75;100.00
41632;BME280;37452;51.938;4.624;2023-05-10T09:47:00;76290.78;;;-142.75;100.00
41632;BME280;37452;51.938;4.624;2023-05-10T09:49:25;76278.97;;;-142.75;100.00
41632;BME280;37452;51.938;4.624;2023-05-10T09:51:59;76286.84;;;-142.75;100.00
41632;BME280;37452;51.938;4.624;2023-05-10T09:54:24;76286.84;;;-142.75;100.00
41632;BME280;37452;51.938;4.624;2023-05-10T09:56:50;76284.88;;;-142.75;100.00
41632;BME280;37452;51.938;4.624;2023-05-10T09:59:15;76277.00;;;-142.75;100.00
41632;BME280;37452;51.938;4.624;2023-05-10T10:01:40;76257.31;;;-142.75;100.00
41632;BME280;37452;51.938;4.624;2023-05-10T10:04:06;76263.22;;;-142.75;100.00
41632;BME280;37452;51.938;4.624;2023-05-10T10:06:39;76255.34;;;-142.75;100.00
41632;BME280;37452;51.938;4.624;2023-05-10T10:09:05;76255.34;;;-142.75;100.00
41632;BME280;37452;51.938;4.624;2023-05-10T10:11:31;76235.66;;;-142.75;100.00
41632;BME280;37452;51.938;4.624;2023-05-10T10:13:56;76219.91;;;-142.75;100.00
41632;BME280;37452;51.938;4.624;2023-05-10T10:16:21;76212.03;;;-142.75;100.00
41632;BME280;37452;51.938;4.624;2023-05-10T10:18:46;76219.91;;;-142.75;100.00
41632;BME280;37452;51.938;4.624;2023-05-10T10:21:13;76212.03;;;-142.75;100.00
41632;BME280;37452;51.938;4.624;2023-05-10T10:23:38;76198.28;;;-142.75;100.00
41632;BME280;37452;51.938;4.624;2023-05-10T10:26:03;76204.16;;;-142.75;100.00
41632;BME280;37452;51.938;4.624;2023-05-10T10:31:12;76223.84;;;-142.75;100.00
41632;BME280;37452;51.938;4.624;2023-05-10T10:36:09;76241.56;;;-142.75;100.00
41632;BME280;37452;51.938;4.624;2023-05-10T10:39:17;76259.28;;;-142.75;100.00
41632;BME280;37452;51.938;4.624;2023-05-10T10:46:59;76208.09;;;-142.75;100.00
41632;BME280;37452;51.938;4.624;2023-05-10T10:49:25;76217.94;;;-142.75;100.00
41632;BME280;37452;51.938;4.624;2023-05-10T10:52:25;76249.44;;;-142.75;100.00
41632;BME280;37452;51.938;4.624;2023-05-10T10:57:18;76247.47;;;-142.75;100.00
41632;BME280;37452;51.938;4.624;2023-05-10T10:59:43;76231.72;;;-142.75;100.00
41632;BME280;37452;51.938;4.624;2023-05-10T11:02:09;76239.59;;;-142.75;100.00
41632;BME280;37452;51.938;4.624;2023-05-10T11:04:43;76227.78;;;-142.75;100.00
41632;BME280;37452;51.938;4.624;2023-05-10T11:07:17;76229.75;;;-142.75;100.00
41632;BME280;37452;51.938;4.624;2023-05-10T11:09:42;76215.97;;;-142.75;100.00
41632;BME280;37452;51.938;4.624;2023-05-10T11:12:08;76208.09;;;-142.75;100.00
41632;BME280;37452;51.938;4.624;2023-05-10T11:14:33;76221.88;;;-142.75;100.00
41632;BME280;37452;51.938;4.624;2023-05-10T11:16:59;76227.78;;;-142.75;100.00
41632;BME280;37452;51.938;4.624;2023-05-10T11:19:27;76247.47;;;-142.75;100.00
41632;BME280;37452;51.938;4.624;2023-05-10T11:24:30;76235.66;;;-142.75;100.00
41632;BME280;37452;51.938;4.624;2023-05-10T11:26:55;76241.56;;;-142.75;100.00
41632;BME280;37452;51.938;4.624;2023-05-10T11:29:21;76241.56;;;-142.75;100.00
41632;BME280;37452;51.938;4.624;2023-05-10T11:31:46;76245.50;;;-142.75;100.00
41632;BME280;37452;51.938;4.624;2023-05-10T11:34:22;76239.59;;;-142.75;100.00
41632;BME280;37452;51.938;4.624;2023-05-10T11:36:50;76241.56;;;-142.75;100.00
41632;BME280;37452;51.938;4.624;2023-05-10T11:39:16;76247.47;;;-142.75;100.00
41632;BME280;37452;51.938;4.624;2023-05-10T11:41:41;76255.34;;;-142.75;100.00
41632;BME280;37452;51.938;4.624;2023-05-10T11:44:06;76273.06;;;-142.75;100.00
41632;BME280;37452;51.938;4.624;2023-05-10T11:46:34;76284.88;;;-142.75;100.00
41632;BME280;37452;51.938;4.624;2023-05-10T11:48:59;76300.63;;;-142.75;100.00
41632;BME280;37452;51.938;4.624;2023-05-10T11:51:26;76314.41;;;-142.75;100.00
41632;BME280;37452;51.938;4.624;2023-05-10T11:53:55;76314.41;;;-142.75;100.00
41632;BME280;37452;51.938;4.624;2023-05-10T11:56:21;76334.09;;;-142.75;100.00
41632;BME280;37452;51.938;4.624;2023-05-10T11:58:52;76353.78;;;-142.75;100.00
41632;BME280;37452;51.938;4.624;2023-05-10T12:01:17;76349.81;;;-142.75;100.00
41632;BME280;37452;51.938;4.624;2023-05-10T12:03:43;76353.78;;;-142.75;100.00
41632;BME280;37452;51.938;4.624;2023-05-10T12:06:09;76371.47;;;-142.75;100.00
41632;BME280;37452;51.938;4.624;2023-05-10T12:08:34;76369.50;;;-142.75;100.00
41632;BME280;37452;51.938;4.624;2023-05-10T12:11:07;76365.56;;;-142.75;100.00
41632;BME280;37452;51.938;4.624;2023-05-10T12:13:36;76375.41;;;-142.75;100.00
41632;BME280;37452;51.938;4.624;2023-05-10T12:16:12;76365.56;;;-142.75;100.00
41632;BME280;37452;51.938;4.624;2023-05-10T12:18:38;76361.63;;;-142.75;100.00
41632;BME280;37452;51.938;4.624;2023-05-10T12:21:04;76363.59;;;-142.75;100.00
41632;BME280;37452;51.938;4.624;2023-05-10T12:23:29;76357.69;;;-142.75;100.00
41632;BME280;37452;51.938;4.624;2023-05-10T12:26:01;76351.81;;;-142.75;100.00
41632;BME280;37452;51.938;4.624;2023-05-10T12:28:29;76330.16;;;-142.75;100.00
41632;BME280;37452;51.938;4.624;2023-05-10T12:30:54;76340.00;;;-142.75;100.00
41632;BME280;37452;51.938;4.624;2023-05-10T12:33:20;76328.19;;;-142.75;100.00
41632;BME280;37452;51.938;4.624;2023-05-10T12:35:46;76326.22;;;-142.75;100.00
41632;BME280;37452;51.938;4.624;2023-05-10T12:38:32;76345.91;;;-142.75;100.00
41632;BME280;37452;51.938;4.624;2023-05-10T12:41:02;76334.09;;;-142.75;100.00
41632;BME280;37452;51.938;4.624;2023-05-10T12:43:27;76351.81;;;-142.75;100.00
41632;BME280;37452;51.938;4.624;2023-05-10T12:45:53;76345.91;;;-142.75;100.00
41632;BME280;37452;51.938;4.624;2023-05-10T12:48:18;76351.81;;;-142.75;100.00
41632;BME280;37452;51.938;4.624;2023-05-10T12:50:43;76361.63;;;-142.75;100.00
41632;BME280;37452;51.938;4.624;2023-05-10T12:53:09;76349.81;;;-142.75;100.00
41632;BME280;37452;51.938;4.624;2023-05-10T12:55:34;76343.94;;;-142.75;100.00
41632;BME280;37452;51.938;4.624;2023-05-10T12:57:59;76328.19;;;-142.75;100.00
41632;BME280;37452;51.938;4.624;2023-05-10T13:00:24;76328.19;;;-142.75;100.00